sensor_id;sensor_type;location;lat;lon;timestamp;P1;durP1;ratioP1;P2;durP2;ratioP2
76098;SDS011;64828;49.956;8.636;2023-07-24T00:00:02;4.25;;;2.05;;
76098;SDS011;64828;49.956;8.636;2023-07-24T00:00:18;3.80;;;1.98;;
76098;SDS011;64828;49.956;8.636;2023-07-24T00:00:33;3.80;;;1.93;;
76098;SDS011;64828;49.956;8.636;2023-07-24T00:00:50;3.88;;;2.00;;
76098;SDS011;64828;49.956;8.636;2023-07-24T00:01:05;3.97;;;2.07;;
76098;SDS011;64828;49.956;8.636;2023-07-24T00:01:21;3.58;;;2.20;;
76098;SDS011;64828;49.956;8.636;2023-07-24T00:01:36;3.43;;;2.27;;
76098;SDS011;64828;49.956;8.636;2023-07-24T00:01:52;3.75;;;2.10;;
76098;SDS011;64828;49.956;8.636;2023-07-24T00:02:07;5.97;;;2.30;;
76098;SDS011;64828;49.956;8.636;2023-07-24T00:02:23;7.25;;;2.40;;
76098;SDS011;64828;49.956;8.636;2023-07-24T00:02:38;5.23;;;2.40;;
76098;SDS011;64828;49.956;8.636;2023-07-24T00:02:54;4.00;;;2.40;;
76098;SDS011;64828;49.956;8.636;2023-07-24T00:03:10;3.78;;;2.28;;
76098;SDS011;64828;49.956;8.636;2023-07-24T00:03:26;3.53;;;2.30;;
76098;SDS011;64828;49.956;8.636;2023-07-24T00:03:41;3.47;;;2.20;;
76098;SDS011;64828;49.956;8.636;2023-07-24T00:03:57;3.90;;;2.20;;
76098;SDS011;64828;49.956;8.636;2023-07-24T00:04:14;3.90;;;2.10;;
76098;SDS011;64828;49.956;8.636;2023-07-24T00:04:32;3.40;;;2.10;;
76098;SDS011;64828;49.956;8.636;2023-07-24T00:04:47;3.78;;;2.30;;
76098;SDS011;64828;49.956;8.636;2023-07-24T00:05:03;3.70;;;2.43;;
76098;SDS011;64828;49.956;8.636;2023-07-24T00:05:19;3.50;;;2.40;;
76098;SDS011;64828;49.956;8.636;2023-07-24T00:05:34;3.92;;;2.28;;
76098;SDS011;64828;49.956;8.636;2023-07-24T00:05:50;3.77;;;2.20;;
76098;SDS011;64828;49.956;8.636;2023-07-24T00:06:05;3.95;;;2.20;;
76098;SDS011;64828;49.956;8.636;2023-07-24T00:06:21;4.10;;;2.30;;
76098;SDS011;64828;49.956;8.636;2023-07-24T00:06:36;4.07;;;2.22;;
76098;SDS011;64828;49.956;8.636;2023-07-24T00:06:52;4.07;;;2.17;;
76098;SDS011;64828;49.956;8.636;2023-07-24T00:07:07;3.60;;;2.10;;
76098;SDS011;64828;49.956;8.636;2023-07-24T00:07:23;3.80;;;2.30;;
76098;SDS011;64828;49.956;8.636;2023-07-24T00:07:40;3.50;;;2.30;;
76098;SDS011;64828;49.956;8.636;2023-07-24T00:07:55;5.03;;;2.70;;
76098;SDS011;64828;49.956;8.636;2023-07-24T00:08:11;5.55;;;2.72;;
76098;SDS011;64828;49.956;8.636;2023-07-24T00:08:26;3.67;;;2.33;;
76098;SDS011;64828;49.956;8.636;2023-07-24T00:08:41;3.60;;;2.20;;
76098;SDS011;64828;49.956;8.636;2023-07-24T00:08:57;4.47;;;2.10;;
76098;SDS011;64828;49.956;8.636;2023-07-24T00:09:12;6.30;;;2.40;;
76098;SDS011;64828;49.956;8.636;2023-07-24T00:09:28;7.37;;;2.50;;
76098;SDS011;64828;49.956;8.636;2023-07-24T00:09:44;5.70;;;2.47;;
76098;SDS011;64828;49.956;8.636;2023-07-24T00:09:59;3.88;;;2.33;;
76098;SDS011;64828;49.956;8.636;2023-07-24T00:10:15;3.73;;;2.37;;
76098;SDS011;64828;49.956;8.636;2023-07-24T00:10:30;4.18;;;2.30;;
76098;SDS011;64828;49.956;8.636;2023-07-24T00:10:46;3.50;;;2.00;;
76098;SDS011;64828;49.956;8.636;2023-07-24T00:11:02;3.45;;;1.88;;
76098;SDS011;64828;49.956;8.636;2023-07-24T00:11:19;3.95;;;2.10;;
76098;SDS011;64828;49.956;8.636;2023-07-24T00:11:34;4.47;;;2.20;;
76098;SDS011;64828;49.956;8.636;2023-07-24T00:11:50;4.32;;;2.20;;
76098;SDS011;64828;49.956;8.636;2023-07-24T00:12:06;3.70;;;2.10;;
76098;SDS011;64828;49.956;8.636;2023-07-24T00:12:22;3.75;;;2.10;;
76098;SDS011;64828;49.956;8.636;2023-07-24T00:12:37;4.15;;;2.10;;
76098;SDS011;64828;49.956;8.636;2023-07-24T00:12:53;5.03;;;2.38;;
76098;SDS011;64828;49.956;8.636;2023-07-24T00:13:08;5.03;;;2.47;;
76098;SDS011;64828;49.956;8.636;2023-07-24T00:13:24;4.20;;;2.20;;
76098;SDS011;64828;49.956;8.636;2023-07-24T00:13:39;3.30;;;2.07;;
76098;SDS011;64828;49.956;8.636;2023-07-24T00:13:55;5.32;;;2.20;;
76098;SDS011;64828;49.956;8.636;2023-07-24T00:14:10;5.17;;;2.20;;
76098;SDS011;64828;49.956;8.636;2023-07-24T00:14:26;6.30;;;2.30;;
76098;SDS011;64828;49.956;8.636;2023-07-24T00:14:41;6.72;;;2.40;;
76098;SDS011;64828;49.956;8.636;2023-07-24T00:14:57;4.47;;;2.50;;
76098;SDS011;64828;49.956;8.636;2023-07-24T00:15:12;4.00;;;2.35;;
76098;SDS011;64828;49.956;8.636;2023-07-24T00:15:28;3.80;;;2.50;;
76098;SDS011;64828;49.956;8.636;2023-07-24T00:15:43;4.22;;;2.90;;
76098;SDS011;64828;49.956;8.636;2023-07-24T00:15:59;4.30;;;2.60;;
76098;SDS011;64828;49.956;8.636;2023-07-24T00:16:14;4.50;;;2.40;;
76098;SDS011;64828;49.956;8.636;2023-07-24T00:16:30;4.22;;;2.35;;
76098;SDS011;64828;49.956;8.636;2023-07-24T00:16:45;3.80;;;2.30;;
76098;SDS011;64828;49.956;8.636;2023-07-24T00:17:00;3.90;;;2.20;;
76098;SDS011;64828;49.956;8.636;2023-07-24T00:17:16;4.23;;;2.30;;
76098;SDS011;64828;49.956;8.636;2023-07-24T00:17:31;3.85;;;2.30;;
76098;SDS011;64828;49.956;8.636;2023-07-24T00:17:47;3.97;;;2.40;;
76098;SDS011;64828;49.956;8.636;2023-07-24T00:18:02;4.70;;;2.38;;
76098;SDS011;64828;49.956;8.636;2023-07-24T00:18:18;4.17;;;2.10;;
76098;SDS011;64828;49.956;8.636;2023-07-24T00:18:33;3.80;;;2.30;;
76098;SDS011;64828;49.956;8.636;2023-07-24T00:18:49;4.60;;;2.50;;
76098;SDS011;64828;49.956;8.636;2023-07-24T00:19:04;4.60;;;2.30;;
76098;SDS011;64828;49.956;8.636;2023-07-24T00:19:20;4.53;;;2.20;;
76098;SDS011;64828;49.956;8.636;2023-07-24T00:19:35;4.53;;;2.30;;
76098;SDS011;64828;49.956;8.636;2023-07-24T00:19:51;3.95;;;2.25;;
76098;SDS011;64828;49.956;8.636;2023-07-24T00:20:06;4.03;;;2.40;;
76098;SDS011;64828;49.956;8.636;2023-07-24T00:20:23;4.35;;;2.45;;
76098;SDS011;64828;49.956;8.636;2023-07-24T00:20:39;4.38;;;2.20;;
76098;SDS011;64828;49.956;8.636;2023-07-24T00:20:55;3.95;;;2.15;;
76098;SDS011;64828;49.956;8.636;2023-07-24T00:21:10;3.70;;;2.30;;
76098;SDS011;64828;49.956;8.636;2023-07-24T00:21:28;3.40;;;2.30;;
76098;SDS011;64828;49.956;8.636;2023-07-24T00:21:43;3.57;;;2.20;;
76098;SDS011;64828;49.956;8.636;2023-07-24T00:21:59;4.13;;;2.38;;
76098;SDS011;64828;49.956;8.636;2023-07-24T00:22:14;4.87;;;2.57;;
76098;SDS011;64828;49.956;8.636;2023-07-24T00:22:30;5.20;;;2.75;;
76098;SDS011;64828;49.956;8.636;2023-07-24T00:22:45;4.63;;;2.60;;
76098;SDS011;64828;49.956;8.636;2023-07-24T00:23:01;3.97;;;2.25;;
76098;SDS011;64828;49.956;8.636;2023-07-24T00:23:16;3.30;;;2.03;;
76098;SDS011;64828;49.956;8.636;2023-07-24T00:23:32;3.63;;;2.08;;
76098;SDS011;64828;49.956;8.636;2023-07-24T00:23:47;3.20;;;2.00;;
76098;SDS011;64828;49.956;8.636;2023-07-24T00:24:03;4.23;;;2.20;;
76098;SDS011;64828;49.956;8.636;2023-07-24T00:24:19;5.43;;;2.38;;
76098;SDS011;64828;49.956;8.636;2023-07-24T00:24:34;5.28;;;2.38;;
76098;SDS011;64828;49.956;8.636;2023-07-24T00:24:50;4.17;;;2.23;;
76098;SDS011;64828;49.956;8.636;2023-07-24T00:25:05;3.72;;;2.17;;
76098;SDS011;64828;49.956;8.636;2023-07-24T00:25:21;3.97;;;2.30;;
76098;SDS011;64828;49.956;8.636;2023-07-24T00:25:37;5.38;;;2.33;;
76098;SDS011;64828;49.956;8.636;2023-07-24T00:25:52;5.18;;;2.40;;
76098;SDS011;64828;49.956;8.636;2023-07-24T00:26:08;3.70;;;2.35;;
76098;SDS011;64828;49.956;8.636;2023-07-24T00:26:24;3.73;;;2.30;;
76098;SDS011;64828;49.956;8.636;2023-07-24T00:26:39;4.13;;;2.28;;
76098;SDS011;64828;49.956;8.636;2023-07-24T00:26:55;3.83;;;2.20;;
76098;SDS011;64828;49.956;8.636;2023-07-24T00:27:10;4.57;;;2.13;;
76098;SDS011;64828;49.956;8.636;2023-07-24T00:27:26;4.60;;;2.20;;
76098;SDS011;64828;49.956;8.636;2023-07-24T00:27:42;4.20;;;2.40;;
76098;SDS011;64828;49.956;8.636;2023-07-24T00:27:58;4.95;;;2.20;;
76098;SDS011;64828;49.956;8.636;2023-07-24T00:28:13;5.33;;;2.30;;
76098;SDS011;64828;49.956;8.636;2023-07-24T00:28:28;5.07;;;2.55;;
76098;SDS011;64828;49.956;8.636;2023-07-24T00:28:44;4.47;;;2.30;;
76098;SDS011;64828;49.956;8.636;2023-07-24T00:28:59;4.00;;;2.23;;
76098;SDS011;64828;49.956;8.636;2023-07-24T00:29:15;3.90;;;2.22;;
76098;SDS011;64828;49.956;8.636;2023-07-24T00:29:31;4.20;;;2.35;;
76098;SDS011;64828;49.956;8.636;2023-07-24T00:29:46;4.07;;;2.30;;
76098;SDS011;64828;49.956;8.636;2023-07-24T00:30:02;4.50;;;2.40;;
76098;SDS011;64828;49.956;8.636;2023-07-24T00:30:17;4.33;;;2.47;;
76098;SDS011;64828;49.956;8.636;2023-07-24T00:30:33;3.55;;;2.28;;
76098;SDS011;64828;49.956;8.636;2023-07-24T00:30:48;4.60;;;2.40;;
76098;SDS011;64828;49.956;8.636;2023-07-24T00:31:04;4.40;;;2.40;;
76098;SDS011;64828;49.956;8.636;2023-07-24T00:31:19;4.50;;;2.30;;
76098;SDS011;64828;49.956;8.636;2023-07-24T00:31:35;5.03;;;2.53;;
76098;SDS011;64828;49.956;8.636;2023-07-24T00:31:50;5.07;;;2.60;;
76098;SDS011;64828;49.956;8.636;2023-07-24T00:32:06;5.07;;;2.47;;
76098;SDS011;64828;49.956;8.636;2023-07-24T00:32:21;4.43;;;2.40;;
76098;SDS011;64828;49.956;8.636;2023-07-24T00:32:37;5.55;;;2.67;;
76098;SDS011;64828;49.956;8.636;2023-07-24T00:32:52;6.00;;;2.50;;
76098;SDS011;64828;49.956;8.636;2023-07-24T00:33:08;5.65;;;2.50;;
76098;SDS011;64828;49.956;8.636;2023-07-24T00:33:24;4.73;;;2.50;;
76098;SDS011;64828;49.956;8.636;2023-07-24T00:33:39;4.60;;;2.40;;
76098;SDS011;64828;49.956;8.636;2023-07-24T00:33:55;6.83;;;2.47;;
76098;SDS011;64828;49.956;8.636;2023-07-24T00:34:10;7.80;;;2.60;;
76098;SDS011;64828;49.956;8.636;2023-07-24T00:34:26;6.40;;;2.70;;
76098;SDS011;64828;49.956;8.636;2023-07-24T00:34:41;5.22;;;2.63;;
76098;SDS011;64828;49.956;8.636;2023-07-24T00:34:57;4.70;;;2.70;;
76098;SDS011;64828;49.956;8.636;2023-07-24T00:35:12;4.90;;;2.50;;
76098;SDS011;64828;49.956;8.636;2023-07-24T00:35:27;4.10;;;2.30;;
76098;SDS011;64828;49.956;8.636;2023-07-24T00:35:43;4.37;;;2.40;;
76098;SDS011;64828;49.956;8.636;2023-07-24T00:35:59;5.20;;;2.50;;
76098;SDS011;64828;49.956;8.636;2023-07-24T00:36:14;5.60;;;2.50;;
76098;SDS011;64828;49.956;8.636;2023-07-24T00:36:29;4.80;;;2.30;;
76098;SDS011;64828;49.956;8.636;2023-07-24T00:36:45;4.00;;;2.30;;
76098;SDS011;64828;49.956;8.636;2023-07-24T00:37:01;4.57;;;2.40;;
76098;SDS011;64828;49.956;8.636;2023-07-24T00:37:16;4.60;;;2.47;;
76098;SDS011;64828;49.956;8.636;2023-07-24T00:37:32;3.63;;;2.40;;
76098;SDS011;64828;49.956;8.636;2023-07-24T00:37:47;4.07;;;2.40;;
76098;SDS011;64828;49.956;8.636;2023-07-24T00:38:02;4.65;;;2.40;;
76098;SDS011;64828;49.956;8.636;2023-07-24T00:38:18;4.00;;;2.20;;
76098;SDS011;64828;49.956;8.636;2023-07-24T00:38:33;5.40;;;2.30;;
76098;SDS011;64828;49.956;8.636;2023-07-24T00:38:49;6.05;;;2.58;;
76098;SDS011;64828;49.956;8.636;2023-07-24T00:39:04;4.90;;;2.63;;
76098;SDS011;64828;49.956;8.636;2023-07-24T00:39:20;4.57;;;2.58;;
76098;SDS011;64828;49.956;8.636;2023-07-24T00:39:35;4.27;;;2.57;;
76098;SDS011;64828;49.956;8.636;2023-07-24T00:39:51;4.00;;;2.55;;
76098;SDS011;64828;49.956;8.636;2023-07-24T00:40:06;3.93;;;2.40;;
76098;SDS011;64828;49.956;8.636;2023-07-24T00:40:22;4.05;;;2.40;;
76098;SDS011;64828;49.956;8.636;2023-07-24T00:40:38;4.60;;;2.50;;
76098;SDS011;64828;49.956;8.636;2023-07-24T00:40:53;4.60;;;2.43;;
76098;SDS011;64828;49.956;8.636;2023-07-24T00:41:09;4.53;;;2.42;;
76098;SDS011;64828;49.956;8.636;2023-07-24T00:41:24;5.10;;;2.47;;
76098;SDS011;64828;49.956;8.636;2023-07-24T00:41:40;4.63;;;2.40;;
76098;SDS011;64828;49.956;8.636;2023-07-24T00:41:56;4.22;;;2.42;;
76098;SDS011;64828;49.956;8.636;2023-07-24T00:42:11;4.25;;;2.50;;
76098;SDS011;64828;49.956;8.636;2023-07-24T00:42:27;5.00;;;2.60;;
76098;SDS011;64828;49.956;8.636;2023-07-24T00:42:45;5.55;;;2.63;;
76098;SDS011;64828;49.956;8.636;2023-07-24T00:43:02;4.93;;;2.55;;
76098;SDS011;64828;49.956;8.636;2023-07-24T00:43:17;4.30;;;2.40;;
76098;SDS011;64828;49.956;8.636;2023-07-24T00:43:33;4.90;;;2.50;;
76098;SDS011;64828;49.956;8.636;2023-07-24T00:43:48;5.65;;;3.15;;
76098;SDS011;64828;49.956;8.636;2023-07-24T00:44:04;5.83;;;2.97;;
76098;SDS011;64828;49.956;8.636;2023-07-24T00:44:19;5.40;;;2.58;;
76098;SDS011;64828;49.956;8.636;2023-07-24T00:44:35;5.07;;;2.83;;
76098;SDS011;64828;49.956;8.636;2023-07-24T00:44:51;4.40;;;2.65;;
76098;SDS011;64828;49.956;8.636;2023-07-24T00:45:07;4.03;;;2.40;;
76098;SDS011;64828;49.956;8.636;2023-07-24T00:45:24;4.25;;;2.40;;
76098;SDS011;64828;49.956;8.636;2023-07-24T00:45:40;4.30;;;2.33;;
76098;SDS011;64828;49.956;8.636;2023-07-24T00:45:56;3.80;;;2.30;;
76098;SDS011;64828;49.956;8.636;2023-07-24T00:46:12;3.45;;;2.35;;
76098;SDS011;64828;49.956;8.636;2023-07-24T00:46:28;4.07;;;2.38;;
76098;SDS011;64828;49.956;8.636;2023-07-24T00:46:47;4.32;;;2.20;;
76098;SDS011;64828;49.956;8.636;2023-07-24T00:47:03;4.32;;;2.50;;
76098;SDS011;64828;49.956;8.636;2023-07-24T00:47:19;4.47;;;2.65;;
76098;SDS011;64828;49.956;8.636;2023-07-24T00:47:35;3.93;;;2.30;;
76098;SDS011;64828;49.956;8.636;2023-07-24T00:47:51;4.95;;;2.20;;
76098;SDS011;64828;49.956;8.636;2023-07-24T00:48:06;5.35;;;2.35;;
76098;SDS011;64828;49.956;8.636;2023-07-24T00:48:22;4.63;;;2.33;;
76098;SDS011;64828;49.956;8.636;2023-07-24T00:48:38;4.93;;;2.58;;
76098;SDS011;64828;49.956;8.636;2023-07-24T00:48:54;4.97;;;2.67;;
76098;SDS011;64828;49.956;8.636;2023-07-24T00:49:09;3.87;;;2.33;;
76098;SDS011;64828;49.956;8.636;2023-07-24T00:49:25;3.67;;;2.25;;
76098;SDS011;64828;49.956;8.636;2023-07-24T00:49:41;4.07;;;2.30;;
76098;SDS011;64828;49.956;8.636;2023-07-24T00:49:56;4.00;;;2.30;;
76098;SDS011;64828;49.956;8.636;2023-07-24T00:50:12;4.25;;;2.38;;
76098;SDS011;64828;49.956;8.636;2023-07-24T00:50:28;5.20;;;2.33;;
76098;SDS011;64828;49.956;8.636;2023-07-24T00:50:44;4.72;;;2.22;;
76098;SDS011;64828;49.956;8.636;2023-07-24T00:51:00;3.58;;;2.30;;
76098;SDS011;64828;49.956;8.636;2023-07-24T00:51:17;4.50;;;2.28;;
76098;SDS011;64828;49.956;8.636;2023-07-24T00:51:32;4.95;;;2.20;;
76098;SDS011;64828;49.956;8.636;2023-07-24T00:51:49;3.53;;;2.28;;
76098;SDS011;64828;49.956;8.636;2023-07-24T00:52:05;3.70;;;2.40;;
76098;SDS011;64828;49.956;8.636;2023-07-24T00:52:21;4.35;;;2.45;;
76098;SDS011;64828;49.956;8.636;2023-07-24T00:52:37;4.57;;;2.57;;
76098;SDS011;64828;49.956;8.636;2023-07-24T00:52:53;4.03;;;2.42;;
76098;SDS011;64828;49.956;8.636;2023-07-24T00:53:10;3.40;;;2.25;;
76098;SDS011;64828;49.956;8.636;2023-07-24T00:53:27;4.20;;;2.40;;
76098;SDS011;64828;49.956;8.636;2023-07-24T00:53:43;3.93;;;2.20;;
76098;SDS011;64828;49.956;8.636;2023-07-24T00:54:00;3.95;;;2.50;;
76098;SDS011;64828;49.956;8.636;2023-07-24T00:54:17;4.95;;;2.75;;
76098;SDS011;64828;49.956;8.636;2023-07-24T00:54:34;4.50;;;2.55;;
76098;SDS011;64828;49.956;8.636;2023-07-24T00:54:50;4.13;;;2.30;;
76098;SDS011;64828;49.956;8.636;2023-07-24T00:55:06;4.05;;;2.30;;
76098;SDS011;64828;49.956;8.636;2023-07-24T00:55:22;3.75;;;2.35;;
76098;SDS011;64828;49.956;8.636;2023-07-24T00:55:38;4.78;;;2.30;;
76098;SDS011;64828;49.956;8.636;2023-07-24T00:55:54;5.50;;;2.33;;
76098;SDS011;64828;49.956;8.636;2023-07-24T00:56:10;4.45;;;2.45;;
76098;SDS011;64828;49.956;8.636;2023-07-24T00:56:26;3.67;;;2.33;;
76098;SDS011;64828;49.956;8.636;2023-07-24T00:56:43;3.45;;;2.20;;
76098;SDS011;64828;49.956;8.636;2023-07-24T00:56:59;3.30;;;2.20;;
76098;SDS011;64828;49.956;8.636;2023-07-24T00:57:16;4.53;;;2.33;;
76098;SDS011;64828;49.956;8.636;2023-07-24T00:57:32;5.63;;;2.38;;
76098;SDS011;64828;49.956;8.636;2023-07-24T00:57:48;4.95;;;2.30;;
76098;SDS011;64828;49.956;8.636;2023-07-24T00:58:04;4.75;;;2.30;;
76098;SDS011;64828;49.956;8.636;2023-07-24T00:58:20;4.65;;;2.25;;
76098;SDS011;64828;49.956;8.636;2023-07-24T00:58:36;3.55;;;2.20;;
76098;SDS011;64828;49.956;8.636;2023-07-24T00:58:53;3.25;;;2.17;;
76098;SDS011;64828;49.956;8.636;2023-07-24T00:59:10;3.78;;;2.15;;
76098;SDS011;64828;49.956;8.636;2023-07-24T00:59:26;4.60;;;2.28;;
76098;SDS011;64828;49.956;8.636;2023-07-24T00:59:42;4.82;;;2.22;;
76098;SDS011;64828;49.956;8.636;2023-07-24T00:59:58;4.45;;;2.47;;
76098;SDS011;64828;49.956;8.636;2023-07-24T01:00:14;4.07;;;2.63;;
76098;SDS011;64828;49.956;8.636;2023-07-24T01:00:31;4.63;;;2.50;;
76098;SDS011;64828;49.956;8.636;2023-07-24T01:00:47;4.50;;;2.58;;
76098;SDS011;64828;49.956;8.636;2023-07-24T01:01:03;3.90;;;2.38;;
76098;SDS011;64828;49.956;8.636;2023-07-24T01:01:19;4.10;;;2.43;;
76098;SDS011;64828;49.956;8.636;2023-07-24T01:01:34;4.20;;;2.47;;
76098;SDS011;64828;49.956;8.636;2023-07-24T01:01:51;4.13;;;2.47;;
76098;SDS011;64828;49.956;8.636;2023-07-24T01:02:07;5.28;;;2.53;;
76098;SDS011;64828;49.956;8.636;2023-07-24T01:02:23;4.53;;;2.40;;
76098;SDS011;64828;49.956;8.636;2023-07-24T01:02:40;3.40;;;2.20;;
76098;SDS011;64828;49.956;8.636;2023-07-24T01:02:55;3.67;;;2.35;;
76098;SDS011;64828;49.956;8.636;2023-07-24T01:03:13;4.30;;;2.47;;
76098;SDS011;64828;49.956;8.636;2023-07-24T01:03:33;4.25;;;2.33;;
76098;SDS011;64828;49.956;8.636;2023-07-24T01:03:50;3.50;;;2.40;;
76098;SDS011;64828;49.956;8.636;2023-07-24T01:04:06;4.75;;;2.42;;
76098;SDS011;64828;49.956;8.636;2023-07-24T01:04:22;4.70;;;2.30;;
76098;SDS011;64828;49.956;8.636;2023-07-24T01:04:38;3.83;;;2.23;;
76098;SDS011;64828;49.956;8.636;2023-07-24T01:04:54;4.32;;;2.40;;
76098;SDS011;64828;49.956;8.636;2023-07-24T01:05:10;3.87;;;2.40;;
76098;SDS011;64828;49.956;8.636;2023-07-24T01:05:28;4.47;;;2.60;;
76098;SDS011;64828;49.956;8.636;2023-07-24T01:05:45;4.53;;;2.60;;
76098;SDS011;64828;49.956;8.636;2023-07-24T01:06:01;4.65;;;2.55;;
76098;SDS011;64828;49.956;8.636;2023-07-24T01:06:17;4.45;;;2.65;;
76098;SDS011;64828;49.956;8.636;2023-07-24T01:06:33;4.22;;;2.50;;
76098;SDS011;64828;49.956;8.636;2023-07-24T01:06:48;3.50;;;2.20;;
76098;SDS011;64828;49.956;8.636;2023-07-24T01:07:04;4.10;;;2.50;;
76098;SDS011;64828;49.956;8.636;2023-07-24T01:07:20;4.60;;;2.70;;
76098;SDS011;64828;49.956;8.636;2023-07-24T01:07:35;5.10;;;2.53;;
76098;SDS011;64828;49.956;8.636;2023-07-24T01:07:52;5.22;;;2.53;;
76098;SDS011;64828;49.956;8.636;2023-07-24T01:08:07;4.32;;;2.35;;
76098;SDS011;64828;49.956;8.636;2023-07-24T01:08:23;4.68;;;2.17;;
76098;SDS011;64828;49.956;8.636;2023-07-24T01:08:38;6.57;;;2.30;;
76098;SDS011;64828;49.956;8.636;2023-07-24T01:08:54;5.75;;;2.45;;
76098;SDS011;64828;49.956;8.636;2023-07-24T01:09:09;6.27;;;2.60;;
76098;SDS011;64828;49.956;8.636;2023-07-24T01:09:25;6.70;;;2.63;;
76098;SDS011;64828;49.956;8.636;2023-07-24T01:09:41;6.78;;;2.30;;
76098;SDS011;64828;49.956;8.636;2023-07-24T01:09:56;6.50;;;2.23;;
76098;SDS011;64828;49.956;8.636;2023-07-24T01:10:12;4.38;;;2.40;;
76098;SDS011;64828;49.956;8.636;2023-07-24T01:10:27;4.57;;;2.30;;
76098;SDS011;64828;49.956;8.636;2023-07-24T01:10:43;4.53;;;2.40;;
76098;SDS011;64828;49.956;8.636;2023-07-24T01:11:00;4.63;;;2.50;;
76098;SDS011;64828;49.956;8.636;2023-07-24T01:11:33;3.58;;;2.28;;
76098;SDS011;64828;49.956;8.636;2023-07-24T01:12:26;4.73;;;2.47;;
76098;SDS011;64828;49.956;8.636;2023-07-24T01:12:58;4.82;;;2.70;;
76098;SDS011;64828;49.956;8.636;2023-07-24T01:13:22;5.38;;;2.40;;
76098;SDS011;64828;49.956;8.636;2023-07-24T01:13:42;4.05;;;2.40;;
76098;SDS011;64828;49.956;8.636;2023-07-24T01:14:08;4.05;;;2.55;;
76098;SDS011;64828;49.956;8.636;2023-07-24T01:15:14;6.35;;;2.72;;
76098;SDS011;64828;49.956;8.636;2023-07-24T01:15:47;4.63;;;2.30;;
76098;SDS011;64828;49.956;8.636;2023-07-24T01:16:13;4.30;;;2.58;;
76098;SDS011;64828;49.956;8.636;2023-07-24T01:16:36;3.83;;;2.33;;
76098;SDS011;64828;49.956;8.636;2023-07-24T01:16:53;6.47;;;2.60;;
76098;SDS011;64828;49.956;8.636;2023-07-24T01:17:10;6.30;;;2.60;;
76098;SDS011;64828;49.956;8.636;2023-07-24T01:17:31;4.90;;;2.58;;
76098;SDS011;64828;49.956;8.636;2023-07-24T01:17:49;4.88;;;2.53;;
76098;SDS011;64828;49.956;8.636;2023-07-24T01:18:10;4.65;;;2.50;;
76098;SDS011;64828;49.956;8.636;2023-07-24T01:18:28;3.70;;;2.30;;
76098;SDS011;64828;49.956;8.636;2023-07-24T01:18:45;3.40;;;2.13;;
76098;SDS011;64828;49.956;8.636;2023-07-24T01:19:11;4.07;;;2.35;;
76098;SDS011;64828;49.956;8.636;2023-07-24T01:19:54;4.82;;;2.38;;
76098;SDS011;64828;49.956;8.636;2023-07-24T01:20:12;4.70;;;2.67;;
76098;SDS011;64828;49.956;8.636;2023-07-24T01:20:32;4.82;;;2.63;;
76098;SDS011;64828;49.956;8.636;2023-07-24T01:20:50;4.10;;;2.63;;
76098;SDS011;64828;49.956;8.636;2023-07-24T01:21:11;5.03;;;2.58;;
76098;SDS011;64828;49.956;8.636;2023-07-24T01:21:38;6.32;;;2.75;;
76098;SDS011;64828;49.956;8.636;2023-07-24T01:22:57;5.13;;;2.65;;
76098;SDS011;64828;49.956;8.636;2023-07-24T01:23:40;5.60;;;2.65;;
76098;SDS011;64828;49.956;8.636;2023-07-24T01:25:28;4.10;;;2.50;;
76098;SDS011;64828;49.956;8.636;2023-07-24T01:25:57;4.97;;;2.65;;
76098;SDS011;64828;49.956;8.636;2023-07-24T01:26:14;5.00;;;2.67;;
76098;SDS011;64828;49.956;8.636;2023-07-24T01:26:29;5.20;;;2.70;;
76098;SDS011;64828;49.956;8.636;2023-07-24T01:26:45;5.20;;;2.70;;
76098;SDS011;64828;49.956;8.636;2023-07-24T01:27:01;4.40;;;2.53;;
76098;SDS011;64828;49.956;8.636;2023-07-24T01:27:20;5.00;;;2.63;;
76098;SDS011;64828;49.956;8.636;2023-07-24T01:27:44;4.55;;;2.58;;
76098;SDS011;64828;49.956;8.636;2023-07-24T01:28:01;5.03;;;2.42;;
76098;SDS011;64828;49.956;8.636;2023-07-24T01:28:16;4.63;;;2.50;;
76098;SDS011;64828;49.956;8.636;2023-07-24T01:28:32;4.78;;;2.50;;
76098;SDS011;64828;49.956;8.636;2023-07-24T01:28:47;5.67;;;2.70;;
76098;SDS011;64828;49.956;8.636;2023-07-24T01:29:03;5.15;;;2.67;;
76098;SDS011;64828;49.956;8.636;2023-07-24T01:29:18;4.40;;;2.50;;
76098;SDS011;64828;49.956;8.636;2023-07-24T01:29:33;5.97;;;2.60;;
76098;SDS011;64828;49.956;8.636;2023-07-24T01:29:49;5.70;;;2.50;;
76098;SDS011;64828;49.956;8.636;2023-07-24T01:30:04;5.43;;;2.50;;
76098;SDS011;64828;49.956;8.636;2023-07-24T01:30:20;5.15;;;2.63;;
76098;SDS011;64828;49.956;8.636;2023-07-24T01:30:36;4.03;;;2.53;;
76098;SDS011;64828;49.956;8.636;2023-07-24T01:30:52;4.40;;;2.57;;
76098;SDS011;64828;49.956;8.636;2023-07-24T01:31:08;4.78;;;2.60;;
76098;SDS011;64828;49.956;8.636;2023-07-24T01:31:23;4.30;;;2.47;;
76098;SDS011;64828;49.956;8.636;2023-07-24T01:31:39;4.17;;;2.37;;
76098;SDS011;64828;49.956;8.636;2023-07-24T01:31:54;4.82;;;2.50;;
76098;SDS011;64828;49.956;8.636;2023-07-24T01:32:10;4.72;;;2.50;;
76098;SDS011;64828;49.956;8.636;2023-07-24T01:32:26;4.13;;;2.30;;
76098;SDS011;64828;49.956;8.636;2023-07-24T01:32:41;4.60;;;2.60;;
76098;SDS011;64828;49.956;8.636;2023-07-24T01:32:57;4.85;;;2.67;;
76098;SDS011;64828;49.956;8.636;2023-07-24T01:33:12;4.83;;;2.70;;
76098;SDS011;64828;49.956;8.636;2023-07-24T01:33:29;5.37;;;2.80;;
76098;SDS011;64828;49.956;8.636;2023-07-24T01:33:46;5.35;;;2.83;;
76098;SDS011;64828;49.956;8.636;2023-07-24T01:34:02;5.37;;;2.80;;
76098;SDS011;64828;49.956;8.636;2023-07-24T01:34:17;4.88;;;2.60;;
76098;SDS011;64828;49.956;8.636;2023-07-24T01:34:33;4.47;;;2.53;;
76098;SDS011;64828;49.956;8.636;2023-07-24T01:34:48;4.95;;;2.75;;
76098;SDS011;64828;49.956;8.636;2023-07-24T01:35:04;5.13;;;2.83;;
76098;SDS011;64828;49.956;8.636;2023-07-24T01:35:20;4.18;;;2.50;;
76098;SDS011;64828;49.956;8.636;2023-07-24T01:35:36;4.10;;;2.40;;
76098;SDS011;64828;49.956;8.636;2023-07-24T01:35:54;4.25;;;2.60;;
76098;SDS011;64828;49.956;8.636;2023-07-24T01:36:12;4.22;;;2.38;;
76098;SDS011;64828;49.956;8.636;2023-07-24T01:36:29;4.78;;;2.60;;
76098;SDS011;64828;49.956;8.636;2023-07-24T01:36:44;5.07;;;2.72;;
76098;SDS011;64828;49.956;8.636;2023-07-24T01:37:00;4.43;;;2.60;;
76098;SDS011;64828;49.956;8.636;2023-07-24T01:37:16;4.47;;;2.70;;
76098;SDS011;64828;49.956;8.636;2023-07-24T01:37:35;4.78;;;2.70;;
76098;SDS011;64828;49.956;8.636;2023-07-24T01:37:54;4.35;;;2.50;;
76098;SDS011;64828;49.956;8.636;2023-07-24T01:38:12;4.95;;;2.50;;
76098;SDS011;64828;49.956;8.636;2023-07-24T01:38:29;5.07;;;2.60;;
76098;SDS011;64828;49.956;8.636;2023-07-24T01:38:47;4.43;;;2.55;;
76098;SDS011;64828;49.956;8.636;2023-07-24T01:39:05;4.97;;;2.60;;
76098;SDS011;64828;49.956;8.636;2023-07-24T01:39:21;4.82;;;2.75;;
76098;SDS011;64828;49.956;8.636;2023-07-24T01:39:37;4.97;;;2.65;;
76098;SDS011;64828;49.956;8.636;2023-07-24T01:39:55;5.40;;;2.70;;
76098;SDS011;64828;49.956;8.636;2023-07-24T01:40:12;4.88;;;2.58;;
76098;SDS011;64828;49.956;8.636;2023-07-24T01:40:28;4.75;;;2.60;;
76098;SDS011;64828;49.956;8.636;2023-07-24T01:40:44;5.13;;;2.83;;
76098;SDS011;64828;49.956;8.636;2023-07-24T01:41:00;4.32;;;2.65;;
76098;SDS011;64828;49.956;8.636;2023-07-24T01:41:17;3.88;;;2.40;;
76098;SDS011;64828;49.956;8.636;2023-07-24T01:41:33;4.10;;;2.50;;
76098;SDS011;64828;49.956;8.636;2023-07-24T01:41:49;4.53;;;2.55;;
76098;SDS011;64828;49.956;8.636;2023-07-24T01:42:05;4.70;;;2.80;;
76098;SDS011;64828;49.956;8.636;2023-07-24T01:42:21;4.20;;;2.60;;
76098;SDS011;64828;49.956;8.636;2023-07-24T01:42:36;5.27;;;2.50;;
76098;SDS011;64828;49.956;8.636;2023-07-24T01:42:52;5.78;;;2.70;;
76098;SDS011;64828;49.956;8.636;2023-07-24T01:43:08;5.05;;;2.72;;
76098;SDS011;64828;49.956;8.636;2023-07-24T01:43:24;5.68;;;2.75;;